Pagrindinis puslapis
METAR-TAF:

METAR-TAF

Oro uostai :

Midland, Teksasas, Jungtinės Amerikos Valstijos

platuma: 32-02-11N, ilguma: 102-06-03W, Aukštis: 854 m

Dabartinis oras

Ataskaita buvo paskelbta 31 minutes, ne 11:15 UTC
Vėjas 3 kt iš Šiaurės/Šiaurės Vakarų
Temperatūra 16°C
Drėgmė 68%
Slėgis 1024 hPa
Matomumas: 16.1 km
Giedras dangus

METAR: KMDD 291115Z AUTO 33003KT 10SM CLR 16/10 A3024 RMK AO2 T01630104

Laikas: 06:46 (11:46 UTC)


TAF: trūkstamas

Orai ataskaitas ir orų prognozės (METAR, TAF).

turimą stotys yra geltonos ir raudonos taškus žemėlapyje.

Perkelti pele per norėdami pamatyti stoties vardą.

Tada spustelėkite, norėdami matyti oro stebėjimo ir prognozės.

Norėdami pakeisti žemėlapį: spustelėkite ant žalios mygtukų su juodo kryžiaus žemyn,; žalią mygtuką su brūkšneliu, jei norite nutolinti; arba žalių rodyklių gretimoms žemėlapius.


METAR-TAF: